North Conway, NH

4:10 AM EDT on August 28, 2015 (GMT -0400)
Computer Port Discount Beverage, North Conway | | Change Station
CLOSE
Current Station
Personal Weather Station
Location: Conway, NH
Elevation: 495 ft
Nearby Weather Stations

Elev 495 ft 44.02 °N, 71.11 °W | Updated 30 seconds ago

Clear
Clear
56.7 °F
Feels Like 56.7 °F
N
0.0
Wind Variable Wind from NNE
Gusts 0.0 mph

Today
High -- | Low -- °F
--% Chance of Precip.
Yesterday
High -- | Low -- °F
Precip. -- in
6:02 AM 7:27 PM
Waxing Gibbous, 97% visible
Pressure 30.10 in
Visibility 6.0 miles
Clouds Few 200 ft
Dew Point 47 °F
Humidity 71%
Rainfall 0.00 in
Snow Depth Not available.
UV 0 out of 12
Pollen 8.60 out of 12
Air Quality Not available.
Flu Activity Not available.
METAR KIZG 280754Z AUTO 00000KT 6SM BR FEW002 09/09 A3009 RMK AO2 SLP191 T00940094
Pressure 30.10 in
Visibility 6.0 miles
Clouds Few 200 ft
Dew Point 47 °F
Humidity 71%
Rainfall 0.00 in
Snow Depth Not available.
UV 0 out of 12
Pollen 8.60 out of 12
Air Quality Not available.
Flu Activity Not available.
METAR KIZG 280754Z AUTO 00000KT 6SM BR FEW002 09/09 A3009 RMK AO2 SLP191 T00940094

10-Day Weather Forecast

×

Almanac

Astronomy

Aug. 28, 2015 Rise Set
Actual Time
Civil Twilight
Nautical Twilight
Astronomical Twilight
Moon
Length of Visible Light
Length of Day
Tomorrow will be .
, % of the Moon is Illuminated

Today's Extremes

State Highs State Lows

Community

WunderPhotos

Upload Photos

1,850,348 photos uploaded!

WunderBlogs® & News

Nearby

Air Quality

  Air Quality AQ Index Pollutant
Not available.

Snow Depth

Station Depth Elevation

Earthquake Activity

City Distance Mag. Time & Date
Minimum magnitude displayed is 2.5.

Coastal Water Temperatures

Place Temperature

Stations

Nearby Weather Stations

Station Location Temp. Windchill Dew Point Humidity Wind Precip. Elev Updated Type